sensor_id;sensor_type;location;lat;lon;timestamp;P1;durP1;ratioP1;P2;durP2;ratioP2
13801;SDS011;6972;51.518;6.918;2022-08-21T00:01:25;10.40;;;3.15;;
13801;SDS011;6972;51.518;6.918;2022-08-21T00:03:52;9.27;;;3.13;;
13801;SDS011;6972;51.518;6.918;2022-08-21T00:06:18;12.27;;;2.72;;
13801;SDS011;6972;51.518;6.918;2022-08-21T00:08:44;5.13;;;2.55;;
13801;SDS011;6972;51.518;6.918;2022-08-21T00:11:10;9.60;;;3.28;;
13801;SDS011;6972;51.518;6.918;2022-08-21T00:13:36;10.38;;;3.13;;
13801;SDS011;6972;51.518;6.918;2022-08-21T00:16:03;10.35;;;2.75;;
13801;SDS011;6972;51.518;6.918;2022-08-21T00:18:30;8.32;;;3.40;;
13801;SDS011;6972;51.518;6.918;2022-08-21T00:20:56;10.65;;;3.63;;
13801;SDS011;6972;51.518;6.918;2022-08-21T00:23:21;10.75;;;3.70;;
13801;SDS011;6972;51.518;6.918;2022-08-21T00:25:47;7.78;;;3.70;;
13801;SDS011;6972;51.518;6.918;2022-08-21T00:28:13;9.85;;;3.70;;
13801;SDS011;6972;51.518;6.918;2022-08-21T00:30:40;15.25;;;3.55;;
13801;SDS011;6972;51.518;6.918;2022-08-21T00:33:06;9.63;;;4.13;;
13801;SDS011;6972;51.518;6.918;2022-08-21T00:35:34;9.55;;;3.58;;
13801;SDS011;6972;51.518;6.918;2022-08-21T00:38:03;12.10;;;4.18;;
13801;SDS011;6972;51.518;6.918;2022-08-21T00:40:34;9.85;;;3.75;;
13801;SDS011;6972;51.518;6.918;2022-08-21T00:43:11;9.25;;;3.53;;
13801;SDS011;6972;51.518;6.918;2022-08-21T00:45:38;6.43;;;3.65;;
13801;SDS011;6972;51.518;6.918;2022-08-21T00:48:04;8.07;;;3.85;;
13801;SDS011;6972;51.518;6.918;2022-08-21T00:50:32;12.35;;;4.60;;
13801;SDS011;6972;51.518;6.918;2022-08-21T00:53:00;14.18;;;4.15;;
13801;SDS011;6972;51.518;6.918;2022-08-21T00:55:28;9.57;;;4.18;;
13801;SDS011;6972;51.518;6.918;2022-08-21T00:57:55;11.18;;;4.03;;
13801;SDS011;6972;51.518;6.918;2022-08-21T01:00:24;10.02;;;4.68;;
13801;SDS011;6972;51.518;6.918;2022-08-21T01:02:53;11.23;;;4.55;;
13801;SDS011;6972;51.518;6.918;2022-08-21T01:05:20;15.57;;;4.75;;
13801;SDS011;6972;51.518;6.918;2022-08-21T01:07:46;9.95;;;4.45;;
13801;SDS011;6972;51.518;6.918;2022-08-21T01:10:13;6.03;;;3.78;;
13801;SDS011;6972;51.518;6.918;2022-08-21T01:12:39;16.25;;;4.63;;
13801;SDS011;6972;51.518;6.918;2022-08-21T01:15:06;10.88;;;4.13;;
13801;SDS011;6972;51.518;6.918;2022-08-21T01:17:32;8.05;;;4.35;;
13801;SDS011;6972;51.518;6.918;2022-08-21T01:19:59;11.30;;;4.38;;
13801;SDS011;6972;51.518;6.918;2022-08-21T01:22:26;7.60;;;4.05;;
13801;SDS011;6972;51.518;6.918;2022-08-21T01:24:52;12.70;;;4.40;;
13801;SDS011;6972;51.518;6.918;2022-08-21T01:27:18;9.82;;;4.65;;
13801;SDS011;6972;51.518;6.918;2022-08-21T01:29:46;8.52;;;4.45;;
13801;SDS011;6972;51.518;6.918;2022-08-21T01:32:15;12.02;;;4.70;;
13801;SDS011;6972;51.518;6.918;2022-08-21T01:34:43;13.98;;;5.38;;
13801;SDS011;6972;51.518;6.918;2022-08-21T01:37:10;11.35;;;4.82;;
13801;SDS011;6972;51.518;6.918;2022-08-21T01:39:36;11.40;;;4.50;;
13801;SDS011;6972;51.518;6.918;2022-08-21T01:42:03;10.93;;;4.50;;
13801;SDS011;6972;51.518;6.918;2022-08-21T01:44:29;9.35;;;5.07;;
13801;SDS011;6972;51.518;6.918;2022-08-21T01:46:55;13.93;;;5.15;;
13801;SDS011;6972;51.518;6.918;2022-08-21T01:49:23;9.70;;;4.80;;
13801;SDS011;6972;51.518;6.918;2022-08-21T01:51:49;12.65;;;4.43;;
13801;SDS011;6972;51.518;6.918;2022-08-21T01:54:15;14.25;;;4.95;;
13801;SDS011;6972;51.518;6.918;2022-08-21T01:56:42;10.25;;;5.20;;
13801;SDS011;6972;51.518;6.918;2022-08-21T01:59:10;15.98;;;5.65;;
13801;SDS011;6972;51.518;6.918;2022-08-21T02:01:36;9.52;;;4.70;;
13801;SDS011;6972;51.518;6.918;2022-08-21T02:04:04;11.98;;;5.18;;
13801;SDS011;6972;51.518;6.918;2022-08-21T02:06:30;12.98;;;5.38;;
13801;SDS011;6972;51.518;6.918;2022-08-21T02:08:56;11.65;;;5.13;;
13801;SDS011;6972;51.518;6.918;2022-08-21T02:11:22;13.63;;;4.95;;
13801;SDS011;6972;51.518;6.918;2022-08-21T02:13:48;9.98;;;4.63;;
13801;SDS011;6972;51.518;6.918;2022-08-21T02:16:14;10.20;;;4.70;;
13801;SDS011;6972;51.518;6.918;2022-08-21T02:18:40;8.85;;;4.47;;
13801;SDS011;6972;51.518;6.918;2022-08-21T02:21:06;15.95;;;5.38;;
13801;SDS011;6972;51.518;6.918;2022-08-21T02:23:32;13.82;;;4.80;;
13801;SDS011;6972;51.518;6.918;2022-08-21T02:26:00;11.10;;;4.65;;
13801;SDS011;6972;51.518;6.918;2022-08-21T02:28:27;11.20;;;4.95;;
13801;SDS011;6972;51.518;6.918;2022-08-21T02:30:54;9.52;;;4.80;;
13801;SDS011;6972;51.518;6.918;2022-08-21T02:33:21;9.25;;;4.53;;
13801;SDS011;6972;51.518;6.918;2022-08-21T02:35:47;9.98;;;5.00;;
13801;SDS011;6972;51.518;6.918;2022-08-21T02:38:16;9.00;;;4.50;;
13801;SDS011;6972;51.518;6.918;2022-08-21T02:40:45;10.27;;;4.60;;
13801;SDS011;6972;51.518;6.918;2022-08-21T02:43:12;12.23;;;4.88;;
13801;SDS011;6972;51.518;6.918;2022-08-21T02:45:39;9.15;;;4.78;;
13801;SDS011;6972;51.518;6.918;2022-08-21T02:48:07;11.45;;;4.90;;
13801;SDS011;6972;51.518;6.918;2022-08-21T02:50:37;9.88;;;4.32;;
13801;SDS011;6972;51.518;6.918;2022-08-21T02:53:05;9.65;;;4.50;;
13801;SDS011;6972;51.518;6.918;2022-08-21T02:55:33;18.45;;;5.63;;
13801;SDS011;6972;51.518;6.918;2022-08-21T02:58:00;10.23;;;4.65;;
13801;SDS011;6972;51.518;6.918;2022-08-21T03:00:28;10.90;;;4.93;;
13801;SDS011;6972;51.518;6.918;2022-08-21T03:02:54;11.77;;;4.90;;
13801;SDS011;6972;51.518;6.918;2022-08-21T03:05:21;8.30;;;4.78;;
13801;SDS011;6972;51.518;6.918;2022-08-21T03:07:48;14.90;;;5.57;;
13801;SDS011;6972;51.518;6.918;2022-08-21T03:10:14;10.85;;;5.30;;
13801;SDS011;6972;51.518;6.918;2022-08-21T03:12:40;11.18;;;5.10;;
13801;SDS011;6972;51.518;6.918;2022-08-21T03:15:07;17.48;;;5.57;;
13801;SDS011;6972;51.518;6.918;2022-08-21T03:17:35;12.20;;;5.20;;
13801;SDS011;6972;51.518;6.918;2022-08-21T03:20:01;12.98;;;5.15;;
13801;SDS011;6972;51.518;6.918;2022-08-21T03:22:29;10.13;;;4.95;;
13801;SDS011;6972;51.518;6.918;2022-08-21T03:24:54;12.07;;;4.70;;
13801;SDS011;6972;51.518;6.918;2022-08-21T03:27:22;9.32;;;4.90;;
13801;SDS011;6972;51.518;6.918;2022-08-21T03:29:49;10.40;;;5.07;;
13801;SDS011;6972;51.518;6.918;2022-08-21T03:32:15;11.15;;;5.13;;
13801;SDS011;6972;51.518;6.918;2022-08-21T03:34:41;11.55;;;4.70;;
13801;SDS011;6972;51.518;6.918;2022-08-21T03:37:07;13.23;;;5.47;;
13801;SDS011;6972;51.518;6.918;2022-08-21T03:39:34;11.95;;;4.90;;
13801;SDS011;6972;51.518;6.918;2022-08-21T03:42:00;8.90;;;4.68;;
13801;SDS011;6972;51.518;6.918;2022-08-21T03:44:27;8.10;;;4.80;;
13801;SDS011;6972;51.518;6.918;2022-08-21T03:46:53;10.90;;;5.10;;
13801;SDS011;6972;51.518;6.918;2022-08-21T03:49:20;12.63;;;4.75;;
13801;SDS011;6972;51.518;6.918;2022-08-21T03:51:46;11.70;;;5.18;;
13801;SDS011;6972;51.518;6.918;2022-08-21T03:54:12;12.75;;;4.75;;
13801;SDS011;6972;51.518;6.918;2022-08-21T03:56:37;13.35;;;5.20;;
13801;SDS011;6972;51.518;6.918;2022-08-21T03:59:04;19.27;;;5.55;;
13801;SDS011;6972;51.518;6.918;2022-08-21T04:01:30;9.52;;;5.45;;
13801;SDS011;6972;51.518;6.918;2022-08-21T04:03:56;10.10;;;5.30;;
13801;SDS011;6972;51.518;6.918;2022-08-21T04:06:22;14.73;;;5.88;;
13801;SDS011;6972;51.518;6.918;2022-08-21T04:08:48;14.05;;;5.88;;
13801;SDS011;6972;51.518;6.918;2022-08-21T04:11:14;13.18;;;6.05;;
13801;SDS011;6972;51.518;6.918;2022-08-21T04:13:41;15.27;;;5.88;;
13801;SDS011;6972;51.518;6.918;2022-08-21T04:16:07;10.77;;;6.25;;
13801;SDS011;6972;51.518;6.918;2022-08-21T04:18:33;15.70;;;5.93;;
13801;SDS011;6972;51.518;6.918;2022-08-21T04:20:59;17.77;;;7.28;;
13801;SDS011;6972;51.518;6.918;2022-08-21T04:23:26;13.30;;;6.47;;
13801;SDS011;6972;51.518;6.918;2022-08-21T04:25:53;14.63;;;7.00;;
13801;SDS011;6972;51.518;6.918;2022-08-21T04:28:21;15.93;;;6.63;;
13801;SDS011;6972;51.518;6.918;2022-08-21T04:30:47;16.25;;;7.38;;
13801;SDS011;6972;51.518;6.918;2022-08-21T04:33:13;16.67;;;7.68;;
13801;SDS011;6972;51.518;6.918;2022-08-21T04:35:39;16.23;;;7.38;;
13801;SDS011;6972;51.518;6.918;2022-08-21T04:38:06;15.52;;;6.93;;
13801;SDS011;6972;51.518;6.918;2022-08-21T04:40:32;13.02;;;7.72;;
13801;SDS011;6972;51.518;6.918;2022-08-21T04:43:02;17.50;;;8.25;;
13801;SDS011;6972;51.518;6.918;2022-08-21T04:45:31;16.35;;;7.68;;
13801;SDS011;6972;51.518;6.918;2022-08-21T04:47:59;17.27;;;8.38;;
13801;SDS011;6972;51.518;6.918;2022-08-21T04:50:31;15.90;;;8.65;;
13801;SDS011;6972;51.518;6.918;2022-08-21T04:53:16;16.65;;;8.27;;
13801;SDS011;6972;51.518;6.918;2022-08-21T04:55:46;14.68;;;7.70;;
13801;SDS011;6972;51.518;6.918;2022-08-21T04:58:13;13.70;;;7.85;;
13801;SDS011;6972;51.518;6.918;2022-08-21T05:00:42;18.02;;;8.85;;
13801;SDS011;6972;51.518;6.918;2022-08-21T05:03:08;15.52;;;8.55;;
13801;SDS011;6972;51.518;6.918;2022-08-21T05:05:36;13.20;;;8.20;;
13801;SDS011;6972;51.518;6.918;2022-08-21T05:08:02;20.98;;;8.77;;
13801;SDS011;6972;51.518;6.918;2022-08-21T05:10:29;17.60;;;8.65;;
13801;SDS011;6972;51.518;6.918;2022-08-21T05:12:56;17.98;;;8.73;;
13801;SDS011;6972;51.518;6.918;2022-08-21T05:15:23;19.17;;;9.20;;
13801;SDS011;6972;51.518;6.918;2022-08-21T05:17:49;18.45;;;8.63;;
13801;SDS011;6972;51.518;6.918;2022-08-21T05:20:15;16.23;;;8.60;;
13801;SDS011;6972;51.518;6.918;2022-08-21T05:22:41;21.75;;;8.32;;
13801;SDS011;6972;51.518;6.918;2022-08-21T05:25:08;18.67;;;8.95;;
13801;SDS011;6972;51.518;6.918;2022-08-21T05:27:34;16.05;;;9.07;;
13801;SDS011;6972;51.518;6.918;2022-08-21T05:30:00;17.88;;;8.40;;
13801;SDS011;6972;51.518;6.918;2022-08-21T05:32:26;15.77;;;8.68;;
13801;SDS011;6972;51.518;6.918;2022-08-21T05:34:53;21.05;;;8.85;;
13801;SDS011;6972;51.518;6.918;2022-08-21T05:37:19;23.70;;;9.10;;
13801;SDS011;6972;51.518;6.918;2022-08-21T05:39:45;15.13;;;8.40;;
13801;SDS011;6972;51.518;6.918;2022-08-21T05:42:11;14.73;;;8.95;;
13801;SDS011;6972;51.518;6.918;2022-08-21T05:44:41;19.00;;;8.70;;
13801;SDS011;6972;51.518;6.918;2022-08-21T05:47:08;15.80;;;9.07;;
13801;SDS011;6972;51.518;6.918;2022-08-21T05:49:36;18.45;;;8.68;;
13801;SDS011;6972;51.518;6.918;2022-08-21T05:52:03;16.55;;;8.77;;
13801;SDS011;6972;51.518;6.918;2022-08-21T05:54:29;21.50;;;8.93;;
13801;SDS011;6972;51.518;6.918;2022-08-21T05:56:55;14.90;;;8.35;;
13801;SDS011;6972;51.518;6.918;2022-08-21T05:59:21;16.98;;;8.90;;
13801;SDS011;6972;51.518;6.918;2022-08-21T06:01:47;15.73;;;9.13;;
13801;SDS011;6972;51.518;6.918;2022-08-21T06:04:13;14.90;;;8.98;;
13801;SDS011;6972;51.518;6.918;2022-08-21T06:06:39;17.75;;;8.98;;
13801;SDS011;6972;51.518;6.918;2022-08-21T06:09:05;18.58;;;8.40;;
13801;SDS011;6972;51.518;6.918;2022-08-21T06:11:31;21.73;;;8.02;;
13801;SDS011;6972;51.518;6.918;2022-08-21T06:13:57;19.58;;;8.93;;
13801;SDS011;6972;51.518;6.918;2022-08-21T06:16:24;16.48;;;7.32;;
13801;SDS011;6972;51.518;6.918;2022-08-21T06:18:50;18.55;;;8.52;;
13801;SDS011;6972;51.518;6.918;2022-08-21T06:21:17;12.95;;;7.70;;
13801;SDS011;6972;51.518;6.918;2022-08-21T06:23:43;16.38;;;7.50;;
13801;SDS011;6972;51.518;6.918;2022-08-21T06:26:10;16.85;;;8.05;;
13801;SDS011;6972;51.518;6.918;2022-08-21T06:28:38;16.70;;;7.68;;
13801;SDS011;6972;51.518;6.918;2022-08-21T06:31:16;14.10;;;7.28;;
13801;SDS011;6972;51.518;6.918;2022-08-21T06:33:47;22.38;;;7.30;;
13801;SDS011;6972;51.518;6.918;2022-08-21T06:36:12;12.50;;;7.38;;
13801;SDS011;6972;51.518;6.918;2022-08-21T06:38:38;15.55;;;7.57;;
13801;SDS011;6972;51.518;6.918;2022-08-21T06:41:05;17.92;;;7.47;;
13801;SDS011;6972;51.518;6.918;2022-08-21T06:43:31;15.95;;;7.63;;
13801;SDS011;6972;51.518;6.918;2022-08-21T06:45:57;11.98;;;6.65;;
13801;SDS011;6972;51.518;6.918;2022-08-21T06:48:23;20.67;;;7.75;;
13801;SDS011;6972;51.518;6.918;2022-08-21T06:50:49;15.73;;;7.28;;
13801;SDS011;6972;51.518;6.918;2022-08-21T06:53:17;22.85;;;7.78;;
13801;SDS011;6972;51.518;6.918;2022-08-21T06:55:44;13.80;;;6.32;;
13801;SDS011;6972;51.518;6.918;2022-08-21T06:58:10;14.73;;;6.50;;
13801;SDS011;6972;51.518;6.918;2022-08-21T07:00:44;17.20;;;6.88;;
13801;SDS011;6972;51.518;6.918;2022-08-21T07:03:16;17.70;;;6.43;;
13801;SDS011;6972;51.518;6.918;2022-08-21T07:05:46;15.48;;;6.32;;
13801;SDS011;6972;51.518;6.918;2022-08-21T07:08:12;13.55;;;6.20;;
13801;SDS011;6972;51.518;6.918;2022-08-21T07:10:37;17.92;;;6.05;;
13801;SDS011;6972;51.518;6.918;2022-08-21T07:13:03;11.98;;;5.63;;
13801;SDS011;6972;51.518;6.918;2022-08-21T07:15:30;20.98;;;5.75;;
13801;SDS011;6972;51.518;6.918;2022-08-21T07:17:56;11.48;;;5.60;;
13801;SDS011;6972;51.518;6.918;2022-08-21T07:20:22;12.32;;;5.85;;
13801;SDS011;6972;51.518;6.918;2022-08-21T07:22:48;17.02;;;5.45;;
13801;SDS011;6972;51.518;6.918;2022-08-21T07:25:14;12.40;;;4.85;;
13801;SDS011;6972;51.518;6.918;2022-08-21T07:27:39;11.40;;;5.10;;
13801;SDS011;6972;51.518;6.918;2022-08-21T07:30:06;11.45;;;4.80;;
13801;SDS011;6972;51.518;6.918;2022-08-21T07:32:32;11.32;;;4.93;;
13801;SDS011;6972;51.518;6.918;2022-08-21T07:34:58;14.23;;;4.70;;
13801;SDS011;6972;51.518;6.918;2022-08-21T07:37:24;13.95;;;4.60;;
13801;SDS011;6972;51.518;6.918;2022-08-21T07:39:50;13.73;;;4.57;;
13801;SDS011;6972;51.518;6.918;2022-08-21T07:42:16;11.93;;;4.53;;
13801;SDS011;6972;51.518;6.918;2022-08-21T07:44:42;12.60;;;4.05;;
13801;SDS011;6972;51.518;6.918;2022-08-21T07:47:08;11.02;;;3.97;;
13801;SDS011;6972;51.518;6.918;2022-08-21T07:49:34;11.38;;;3.88;;
13801;SDS011;6972;51.518;6.918;2022-08-21T07:52:00;9.45;;;3.60;;
13801;SDS011;6972;51.518;6.918;2022-08-21T07:54:26;10.23;;;3.63;;
13801;SDS011;6972;51.518;6.918;2022-08-21T07:56:52;11.77;;;4.07;;
13801;SDS011;6972;51.518;6.918;2022-08-21T07:59:18;13.65;;;3.90;;
13801;SDS011;6972;51.518;6.918;2022-08-21T08:01:44;10.57;;;3.30;;
13801;SDS011;6972;51.518;6.918;2022-08-21T08:04:11;8.60;;;3.40;;
13801;SDS011;6972;51.518;6.918;2022-08-21T08:06:37;11.93;;;3.53;;
13801;SDS011;6972;51.518;6.918;2022-08-21T08:09:03;11.98;;;3.72;;
13801;SDS011;6972;51.518;6.918;2022-08-21T08:11:29;7.95;;;3.33;;
13801;SDS011;6972;51.518;6.918;2022-08-21T08:13:55;10.55;;;3.75;;
13801;SDS011;6972;51.518;6.918;2022-08-21T08:16:23;6.35;;;2.80;;
13801;SDS011;6972;51.518;6.918;2022-08-21T08:18:49;7.85;;;3.00;;
13801;SDS011;6972;51.518;6.918;2022-08-21T08:21:16;14.90;;;2.53;;
13801;SDS011;6972;51.518;6.918;2022-08-21T08:23:43;8.27;;;2.33;;
13801;SDS011;6972;51.518;6.918;2022-08-21T08:26:10;10.48;;;2.75;;
13801;SDS011;6972;51.518;6.918;2022-08-21T08:28:36;6.03;;;1.98;;
13801;SDS011;6972;51.518;6.918;2022-08-21T08:31:02;6.53;;;2.00;;
13801;SDS011;6972;51.518;6.918;2022-08-21T08:33:28;7.13;;;1.98;;
13801;SDS011;6972;51.518;6.918;2022-08-21T08:35:54;5.43;;;2.13;;
13801;SDS011;6972;51.518;6.918;2022-08-21T08:38:21;4.32;;;2.03;;
13801;SDS011;6972;51.518;6.918;2022-08-21T08:41:05;6.07;;;1.70;;
13801;SDS011;6972;51.518;6.918;2022-08-21T08:43:33;8.52;;;2.38;;
13801;SDS011;6972;51.518;6.918;2022-08-21T08:46:01;6.57;;;1.73;;
13801;SDS011;6972;51.518;6.918;2022-08-21T08:50:57;8.32;;;1.90;;
13801;SDS011;6972;51.518;6.918;2022-08-21T08:53:30;6.15;;;1.80;;
13801;SDS011;6972;51.518;6.918;2022-08-21T08:55:58;6.40;;;1.98;;
13801;SDS011;6972;51.518;6.918;2022-08-21T08:58:28;8.15;;;1.88;;
13801;SDS011;6972;51.518;6.918;2022-08-21T09:00:57;7.78;;;1.80;;
13801;SDS011;6972;51.518;6.918;2022-08-21T09:03:25;4.80;;;1.63;;
13801;SDS011;6972;51.518;6.918;2022-08-21T09:16:50;6.63;;;1.98;;
13801;SDS011;6972;51.518;6.918;2022-08-21T09:19:23;7.05;;;2.17;;
13801;SDS011;6972;51.518;6.918;2022-08-21T09:21:54;7.72;;;2.10;;
13801;SDS011;6972;51.518;6.918;2022-08-21T09:27:11;8.13;;;2.00;;
13801;SDS011;6972;51.518;6.918;2022-08-21T09:29:40;4.05;;;1.75;;
13801;SDS011;6972;51.518;6.918;2022-08-21T09:32:11;4.28;;;1.63;;
13801;SDS011;6972;51.518;6.918;2022-08-21T09:34:54;5.20;;;2.05;;
13801;SDS011;6972;51.518;6.918;2022-08-21T09:37:23;5.47;;;1.85;;
13801;SDS011;6972;51.518;6.918;2022-08-21T09:39:49;4.18;;;1.80;;
13801;SDS011;6972;51.518;6.918;2022-08-21T09:42:23;6.57;;;1.98;;
13801;SDS011;6972;51.518;6.918;2022-08-21T09:45:04;6.75;;;1.75;;
13801;SDS011;6972;51.518;6.918;2022-08-21T09:47:33;3.72;;;1.67;;
13801;SDS011;6972;51.518;6.918;2022-08-21T09:50:20;4.88;;;1.60;;
13801;SDS011;6972;51.518;6.918;2022-08-21T09:52:56;4.53;;;1.70;;
13801;SDS011;6972;51.518;6.918;2022-08-21T09:55:33;5.30;;;1.67;;
13801;SDS011;6972;51.518;6.918;2022-08-21T09:58:29;6.72;;;2.22;;
13801;SDS011;6972;51.518;6.918;2022-08-21T10:00:58;4.55;;;1.85;;
13801;SDS011;6972;51.518;6.918;2022-08-21T10:03:25;4.88;;;1.65;;
13801;SDS011;6972;51.518;6.918;2022-08-21T10:06:05;5.57;;;2.10;;
13801;SDS011;6972;51.518;6.918;2022-08-21T10:08:34;6.43;;;2.00;;
13801;SDS011;6972;51.518;6.918;2022-08-21T10:11:12;4.82;;;1.90;;
13801;SDS011;6972;51.518;6.918;2022-08-21T10:29:56;6.82;;;1.60;;
13801;SDS011;6972;51.518;6.918;2022-08-21T10:35:38;4.50;;;1.80;;
13801;SDS011;6972;51.518;6.918;2022-08-21T10:41:16;5.70;;;1.65;;
13801;SDS011;6972;51.518;6.918;2022-08-21T10:47:11;5.28;;;1.73;;
13801;SDS011;6972;51.518;6.918;2022-08-21T10:55:21;9.40;;;1.80;;
13801;SDS011;6972;51.518;6.918;2022-08-21T10:58:05;8.32;;;1.83;;
13801;SDS011;6972;51.518;6.918;2022-08-21T11:05:59;3.50;;;1.60;;
13801;SDS011;6972;51.518;6.918;2022-08-21T11:08:40;8.18;;;1.92;;
13801;SDS011;6972;51.518;6.918;2022-08-21T11:11:10;5.05;;;1.65;;
13801;SDS011;6972;51.518;6.918;2022-08-21T11:19:08;5.00;;;1.50;;
13801;SDS011;6972;51.518;6.918;2022-08-21T11:27:09;3.90;;;1.50;;
13801;SDS011;6972;51.518;6.918;2022-08-21T11:29:46;5.03;;;1.58;;
13801;SDS011;6972;51.518;6.918;2022-08-21T11:40:58;4.60;;;1.70;;
13801;SDS011;6972;51.518;6.918;2022-08-21T11:56:39;7.50;;;1.85;;
13801;SDS011;6972;51.518;6.918;2022-08-21T11:59:14;3.42;;;1.55;;
13801;SDS011;6972;51.518;6.918;2022-08-21T12:01:54;3.45;;;1.33;;
13801;SDS011;6972;51.518;6.918;2022-08-21T12:04:23;7.95;;;1.88;;
13801;SDS011;6972;51.518;6.918;2022-08-21T12:06:55;3.65;;;1.65;;
13801;SDS011;6972;51.518;6.918;2022-08-21T12:09:35;3.90;;;1.52;;
13801;SDS011;6972;51.518;6.918;2022-08-21T12:12:23;5.35;;;1.70;;
13801;SDS011;6972;51.518;6.918;2022-08-21T12:17:50;3.13;;;1.38;;
13801;SDS011;6972;51.518;6.918;2022-08-21T12:22:52;3.33;;;1.60;;
13801;SDS011;6972;51.518;6.918;2022-08-21T12:25:20;6.00;;;1.50;;
13801;SDS011;6972;51.518;6.918;2022-08-21T12:27:48;3.20;;;1.42;;
13801;SDS011;6972;51.518;6.918;2022-08-21T12:30:21;3.20;;;1.33;;
13801;SDS011;6972;51.518;6.918;2022-08-21T12:32:55;2.95;;;1.58;;
13801;SDS011;6972;51.518;6.918;2022-08-21T12:35:44;2.97;;;1.33;;
13801;SDS011;6972;51.518;6.918;2022-08-21T12:38:15;7.30;;;1.75;;
13801;SDS011;6972;51.518;6.918;2022-08-21T12:40:52;4.13;;;1.40;;
13801;SDS011;6972;51.518;6.918;2022-08-21T12:46:01;6.65;;;1.63;;
13801;SDS011;6972;51.518;6.918;2022-08-21T12:48:31;3.58;;;1.50;;
13801;SDS011;6972;51.518;6.918;2022-08-21T12:55:57;7.78;;;1.77;;
13801;SDS011;6972;51.518;6.918;2022-08-21T12:58:28;10.60;;;1.92;;
13801;SDS011;6972;51.518;6.918;2022-08-21T13:01:08;5.18;;;1.75;;
13801;SDS011;6972;51.518;6.918;2022-08-21T13:03:49;2.90;;;1.30;;
13801;SDS011;6972;51.518;6.918;2022-08-21T13:06:18;6.78;;;1.65;;
13801;SDS011;6972;51.518;6.918;2022-08-21T13:08:45;4.00;;;1.67;;
13801;SDS011;6972;51.518;6.918;2022-08-21T13:11:14;5.68;;;1.80;;
13801;SDS011;6972;51.518;6.918;2022-08-21T13:13:42;5.00;;;1.77;;
13801;SDS011;6972;51.518;6.918;2022-08-21T13:16:13;3.83;;;1.42;;
13801;SDS011;6972;51.518;6.918;2022-08-21T13:21:26;5.55;;;1.75;;
13801;SDS011;6972;51.518;6.918;2022-08-21T13:26:42;5.35;;;1.55;;
13801;SDS011;6972;51.518;6.918;2022-08-21T13:29:12;4.90;;;1.60;;
13801;SDS011;6972;51.518;6.918;2022-08-21T13:31:46;8.07;;;1.73;;
13801;SDS011;6972;51.518;6.918;2022-08-21T13:34:23;5.68;;;1.90;;
13801;SDS011;6972;51.518;6.918;2022-08-21T13:36:52;7.70;;;1.75;;
13801;SDS011;6972;51.518;6.918;2022-08-21T13:39:22;6.03;;;1.50;;
13801;SDS011;6972;51.518;6.918;2022-08-21T13:41:49;4.15;;;1.65;;
13801;SDS011;6972;51.518;6.918;2022-08-21T13:44:20;6.55;;;1.60;;
13801;SDS011;6972;51.518;6.918;2022-08-21T13:46:47;3.90;;;1.70;;
13801;SDS011;6972;51.518;6.918;2022-08-21T13:49:16;4.32;;;1.90;;
13801;SDS011;6972;51.518;6.918;2022-08-21T13:51:44;3.72;;;1.42;;
13801;SDS011;6972;51.518;6.918;2022-08-21T13:54:22;4.25;;;1.50;;
13801;SDS011;6972;51.518;6.918;2022-08-21T13:56:58;9.20;;;2.00;;
13801;SDS011;6972;51.518;6.918;2022-08-21T13:59:29;6.10;;;1.70;;
13801;SDS011;6972;51.518;6.918;2022-08-21T14:01:58;4.82;;;1.73;;
13801;SDS011;6972;51.518;6.918;2022-08-21T14:04:39;7.55;;;1.88;;
13801;SDS011;6972;51.518;6.918;2022-08-21T14:07:17;5.45;;;1.38;;
13801;SDS011;6972;51.518;6.918;2022-08-21T14:09:46;7.07;;;1.60;;
13801;SDS011;6972;51.518;6.918;2022-08-21T14:12:13;4.10;;;1.63;;
13801;SDS011;6972;51.518;6.918;2022-08-21T14:14:51;2.95;;;1.80;;
13801;SDS011;6972;51.518;6.918;2022-08-21T14:17:37;7.50;;;1.70;;
13801;SDS011;6972;51.518;6.918;2022-08-21T14:20:07;3.47;;;1.50;;
13801;SDS011;6972;51.518;6.918;2022-08-21T14:25:10;8.07;;;1.30;;
13801;SDS011;6972;51.518;6.918;2022-08-21T14:27:53;4.90;;;1.55;;
13801;SDS011;6972;51.518;6.918;2022-08-21T14:32:56;5.45;;;1.55;;
13801;SDS011;6972;51.518;6.918;2022-08-21T14:35:22;2.53;;;1.52;;
13801;SDS011;6972;51.518;6.918;2022-08-21T14:37:48;5.78;;;1.73;;
13801;SDS011;6972;51.518;6.918;2022-08-21T14:40:15;6.95;;;1.58;;
13801;SDS011;6972;51.518;6.918;2022-08-21T14:42:42;10.38;;;1.70;;
13801;SDS011;6972;51.518;6.918;2022-08-21T14:47:46;7.95;;;1.75;;
13801;SDS011;6972;51.518;6.918;2022-08-21T14:50:12;11.57;;;1.75;;
13801;SDS011;6972;51.518;6.918;2022-08-21T14:52:39;4.90;;;1.65;;
13801;SDS011;6972;51.518;6.918;2022-08-21T14:55:06;6.95;;;1.60;;
13801;SDS011;6972;51.518;6.918;2022-08-21T14:57:35;10.68;;;2.08;;
13801;SDS011;6972;51.518;6.918;2022-08-21T15:00:03;4.55;;;1.63;;
13801;SDS011;6972;51.518;6.918;2022-08-21T15:02:30;8.00;;;1.60;;
13801;SDS011;6972;51.518;6.918;2022-08-21T15:04:56;4.82;;;1.77;;
13801;SDS011;6972;51.518;6.918;2022-08-21T15:07:22;7.38;;;1.77;;
13801;SDS011;6972;51.518;6.918;2022-08-21T15:09:48;5.80;;;1.90;;
13801;SDS011;6972;51.518;6.918;2022-08-21T15:12:14;6.60;;;2.17;;
13801;SDS011;6972;51.518;6.918;2022-08-21T15:14:40;6.90;;;1.80;;
13801;SDS011;6972;51.518;6.918;2022-08-21T15:17:07;5.45;;;1.80;;
13801;SDS011;6972;51.518;6.918;2022-08-21T15:19:35;5.85;;;1.85;;
13801;SDS011;6972;51.518;6.918;2022-08-21T15:22:01;7.70;;;1.90;;
13801;SDS011;6972;51.518;6.918;2022-08-21T15:24:27;8.52;;;2.08;;
13801;SDS011;6972;51.518;6.918;2022-08-21T15:26:54;7.45;;;1.80;;
13801;SDS011;6972;51.518;6.918;2022-08-21T15:29:21;9.75;;;2.25;;
13801;SDS011;6972;51.518;6.918;2022-08-21T15:32:29;4.15;;;1.60;;
13801;SDS011;6972;51.518;6.918;2022-08-21T15:34:41;4.88;;;1.67;;
13801;SDS011;6972;51.518;6.918;2022-08-21T15:37:07;5.55;;;1.73;;
13801;SDS011;6972;51.518;6.918;2022-08-21T15:39:33;6.55;;;1.60;;
13801;SDS011;6972;51.518;6.918;2022-08-21T15:42:00;6.35;;;2.10;;
13801;SDS011;6972;51.518;6.918;2022-08-21T15:44:26;5.22;;;1.88;;
13801;SDS011;6972;51.518;6.918;2022-08-21T15:46:53;7.68;;;1.88;;
13801;SDS011;6972;51.518;6.918;2022-08-21T15:49:19;4.20;;;1.90;;
13801;SDS011;6972;51.518;6.918;2022-08-21T15:51:45;5.00;;;1.80;;
13801;SDS011;6972;51.518;6.918;2022-08-21T15:54:11;6.28;;;2.00;;
13801;SDS011;6972;51.518;6.918;2022-08-21T15:56:38;14.18;;;2.00;;
13801;SDS011;6972;51.518;6.918;2022-08-21T15:59:12;6.32;;;1.92;;
13801;SDS011;6972;51.518;6.918;2022-08-21T16:01:42;3.53;;;1.83;;
13801;SDS011;6972;51.518;6.918;2022-08-21T16:04:07;7.72;;;2.58;;
13801;SDS011;6972;51.518;6.918;2022-08-21T16:06:34;5.13;;;2.10;;
13801;SDS011;6972;51.518;6.918;2022-08-21T16:09:00;4.13;;;1.50;;
13801;SDS011;6972;51.518;6.918;2022-08-21T16:11:26;5.13;;;1.95;;
13801;SDS011;6972;51.518;6.918;2022-08-21T16:13:53;3.53;;;1.48;;
13801;SDS011;6972;51.518;6.918;2022-08-21T16:16:20;4.00;;;1.70;;
13801;SDS011;6972;51.518;6.918;2022-08-21T16:18:47;3.45;;;1.50;;
13801;SDS011;6972;51.518;6.918;2022-08-21T16:21:13;6.78;;;1.85;;
13801;SDS011;6972;51.518;6.918;2022-08-21T16:23:39;4.72;;;1.80;;
13801;SDS011;6972;51.518;6.918;2022-08-21T16:26:06;5.63;;;2.00;;
13801;SDS011;6972;51.518;6.918;2022-08-21T16:28:33;3.60;;;1.50;;
13801;SDS011;6972;51.518;6.918;2022-08-21T16:31:01;3.35;;;1.48;;
13801;SDS011;6972;51.518;6.918;2022-08-21T16:36:04;5.95;;;1.63;;
13801;SDS011;6972;51.518;6.918;2022-08-21T16:38:31;5.10;;;1.63;;
13801;SDS011;6972;51.518;6.918;2022-08-21T16:40:58;6.63;;;1.88;;
13801;SDS011;6972;51.518;6.918;2022-08-21T16:43:25;2.40;;;1.52;;
13801;SDS011;6972;51.518;6.918;2022-08-21T16:45:53;5.90;;;1.45;;
13801;SDS011;6972;51.518;6.918;2022-08-21T16:48:21;5.60;;;2.03;;
13801;SDS011;6972;51.518;6.918;2022-08-21T16:50:46;6.03;;;2.10;;
13801;SDS011;6972;51.518;6.918;2022-08-21T16:53:13;3.95;;;1.70;;
13801;SDS011;6972;51.518;6.918;2022-08-21T16:55:39;5.30;;;1.80;;
13801;SDS011;6972;51.518;6.918;2022-08-21T16:58:47;5.10;;;2.03;;